createdAt,value
2023-08-24T00:01:04.734Z,96488.84
2023-08-24T00:05:19.667Z,96496.09
2023-08-24T00:09:32.260Z,96482.50
2023-08-24T00:13:51.270Z,96488.13
2023-08-24T00:18:04.438Z,96494.03
2023-08-24T00:22:16.963Z,96475.03
2023-08-24T00:26:29.476Z,96484.31
2023-08-24T00:30:42.470Z,96482.59
2023-08-24T00:34:54.979Z,96490.16
2023-08-24T00:39:08.334Z,96497.41
2023-08-24T00:43:24.016Z,96494.22
2023-08-24T00:47:37.096Z,96490.31
2023-08-24T00:51:49.812Z,96484.03
2023-08-24T00:56:02.552Z,96485.75
2023-08-24T01:00:15.787Z,96490.06
2023-08-24T01:04:28.223Z,96492.94
2023-08-24T01:08:41.235Z,96494.41
2023-08-24T01:13:06.494Z,96486.47
2023-08-24T01:17:25.924Z,96488.41
2023-08-24T01:21:38.897Z,96480.84
2023-08-24T01:25:55.866Z,96491.53
2023-08-24T01:30:09.766Z,96484.41
2023-08-24T01:34:22.284Z,96481.81
2023-08-24T01:38:35.178Z,96488.72
2023-08-24T01:43:15.357Z,96488.50
2023-08-24T01:47:32.334Z,96483.28
2023-08-24T01:51:46.585Z,96485.31
2023-08-24T01:55:59.129Z,96482.56
2023-08-24T02:00:12.372Z,96473.69
2023-08-24T02:04:24.902Z,96477.31
2023-08-24T02:08:37.446Z,96469.94
2023-08-24T02:12:49.980Z,96472.38
2023-08-24T02:17:02.517Z,96460.38
2023-08-24T02:21:16.237Z,96462.28
2023-08-24T02:25:28.794Z,96465.38
2023-08-24T02:29:41.280Z,96469.50
2023-08-24T02:33:53.903Z,96454.19
2023-08-24T02:38:06.398Z,96459.81
2023-08-24T02:42:18.890Z,96458.81
2023-08-24T02:46:31.788Z,96445.09
2023-08-24T02:50:49.454Z,96454.50
2023-08-24T02:55:01.960Z,96448.38
2023-08-24T02:59:14.611Z,96440.75
2023-08-24T03:03:27.304Z,96445.34
2023-08-24T03:07:39.843Z,96446.13
2023-08-24T03:11:52.319Z,96437.88
2023-08-24T03:16:06.899Z,96432.84
2023-08-24T03:20:19.666Z,96436.72
2023-08-24T03:24:32.957Z,96434.44
2023-08-24T03:28:45.687Z,96426.50
2023-08-24T03:32:58.389Z,96430.13
2023-08-24T03:37:10.914Z,96429.38
2023-08-24T03:41:23.974Z,96426.56
2023-08-24T03:45:36.499Z,96430.16
2023-08-24T03:49:49.105Z,96420.47
2023-08-24T03:54:01.754Z,96424.03
2023-08-24T03:58:14.264Z,96428.09
2023-08-24T04:02:26.797Z,96425.56
2023-08-24T04:06:39.330Z,96426.34
2023-08-24T04:10:51.824Z,96424.78
2023-08-24T04:15:04.852Z,96431.41
2023-08-24T04:19:17.370Z,96432.41
2023-08-24T04:23:30.268Z,96441.84
2023-08-24T04:27:43.461Z,96441.28
2023-08-24T04:31:56.555Z,96441.53
2023-08-24T04:36:09.124Z,96443.88
2023-08-24T04:40:21.567Z,96449.75
2023-08-24T04:44:35.059Z,96447.19
2023-08-24T04:48:47.635Z,96446.13
2023-08-24T04:53:00.139Z,96455.81
2023-08-24T04:57:12.633Z,96445.09
2023-08-24T05:01:28.798Z,96456.50
2023-08-24T05:05:41.361Z,96436.63
2023-08-24T05:09:56.030Z,96416.19
2023-08-24T05:14:08.511Z,96425.78
2023-08-24T05:18:21.109Z,96433.13
2023-08-24T05:22:33.628Z,96419.50
2023-08-24T05:26:46.130Z,96410.75
2023-08-24T05:30:59.339Z,96425.16
2023-08-24T05:35:11.921Z,96423.75
2023-08-24T05:39:24.511Z,96429.25
2023-08-24T05:43:37.037Z,96420.84
2023-08-24T05:47:49.804Z,96416.81
2023-08-24T05:52:02.537Z,96423.38
2023-08-24T05:56:15.081Z,96429.16
2023-08-24T06:00:27.675Z,96417.75
2023-08-24T06:04:40.770Z,96411.09
2023-08-24T06:08:53.360Z,96394.06
2023-08-24T06:13:05.877Z,96409.03
2023-08-24T06:17:18.425Z,96394.63
2023-08-24T06:21:31.428Z,96400.88
2023-08-24T06:25:44.778Z,96394.94
2023-08-24T06:29:57.264Z,96398.53
2023-08-24T06:34:09.780Z,96391.97
2023-08-24T06:38:25.048Z,96390.06
2023-08-24T06:42:37.821Z,96379.03
2023-08-24T06:46:50.312Z,96384.66
2023-08-24T06:51:02.957Z,96376.47
2023-08-24T06:55:15.650Z,96374.91
2023-08-24T06:59:28.283Z,96373.56
2023-08-24T07:03:41.227Z,96375.16
2023-08-24T07:07:55.567Z,96364.63
2023-08-24T07:12:09.095Z,96358.16
2023-08-24T07:16:21.617Z,96353.97
2023-08-24T07:20:39.243Z,96340.94
2023-08-24T07:24:54.196Z,96372.41
2023-08-24T07:29:07.419Z,96368.16
2023-08-24T07:33:20.003Z,96360.31
2023-08-24T07:37:32.571Z,96353.41
2023-08-24T07:41:47.255Z,96345.25
2023-08-24T07:46:01.401Z,96342.47
2023-08-24T07:50:14.067Z,96341.19
2023-08-24T07:54:26.950Z,96337.19
2023-08-24T07:58:39.524Z,96338.56
2023-08-24T08:02:53.193Z,96346.63
2023-08-24T08:07:06.426Z,96332.84
2023-08-24T08:11:19.309Z,96340.28
2023-08-24T08:15:32.481Z,96343.22
2023-08-24T08:19:45.723Z,96353.06
2023-08-24T08:23:58.234Z,96338.03
2023-08-24T08:28:11.702Z,96335.69
2023-08-24T08:32:28.915Z,96340.03
2023-08-24T08:36:43.529Z,96342.06
2023-08-24T08:41:03.086Z,96338.25
2023-08-24T08:45:17.833Z,96336.78
2023-08-24T08:49:32.996Z,96340.50
2023-08-24T08:53:46.193Z,96337.50
2023-08-24T08:58:01.359Z,96343.53
2023-08-24T09:02:18.918Z,96333.19
2023-08-24T09:06:32.293Z,96341.63
2023-08-24T09:10:46.096Z,96337.63
2023-08-24T09:14:59.716Z,96328.91
2023-08-24T09:19:14.847Z,96314.69
2023-08-24T09:23:28.870Z,96285.19
2023-08-24T09:27:43.556Z,96278.50
2023-08-24T09:31:56.678Z,96268.81
2023-08-24T09:36:09.833Z,96261.56
2023-08-24T09:40:28.444Z,96264.50
2023-08-24T09:44:49.083Z,96263.44
2023-08-24T09:49:03.464Z,96253.75
2023-08-24T09:53:25.122Z,96251.78
2023-08-24T09:57:42.346Z,96251.69
2023-08-24T10:01:59.075Z,96240.94
2023-08-24T10:06:13.779Z,96234.88
2023-08-24T10:10:30.292Z,96230.69
2023-08-24T10:14:57.596Z,96240.81
2023-08-24T10:19:11.555Z,96232.25
2023-08-24T10:23:25.529Z,96236.13
2023-08-24T10:27:39.417Z,96217.41
2023-08-24T10:31:53.268Z,96203.47
2023-08-24T10:36:09.802Z,96206.41
2023-08-24T10:40:46.306Z,96209.44
2023-08-24T10:45:00.437Z,96195.97
2023-08-24T10:49:13.762Z,96186.16
2023-08-24T10:53:43.712Z,96176.72
2023-08-24T10:58:01.864Z,96164.38
2023-08-24T11:02:24.152Z,96162.69
2023-08-24T11:06:52.231Z,96153.03
2023-08-24T11:11:05.512Z,96152.78
2023-08-24T11:15:48.379Z,96144.41
2023-08-24T11:20:05.065Z,96129.38
2023-08-24T11:24:19.750Z,96129.88
2023-08-24T11:28:33.654Z,96118.47
2023-08-24T11:32:50.324Z,96111.94
2023-08-24T11:37:03.727Z,96102.88
2023-08-24T11:41:20.402Z,96099.56
2023-08-24T11:45:40.854Z,96098.34
2023-08-24T11:49:53.601Z,96092.75
2023-08-24T11:54:07.147Z,96090.16
2023-08-24T11:58:20.251Z,96090.91
2023-08-24T12:02:34.480Z,96082.78
2023-08-24T12:06:48.692Z,96080.91
2023-08-24T12:11:01.901Z,96084.03
2023-08-24T12:15:22.401Z,96086.81
2023-08-24T12:19:35.604Z,96075.66
2023-08-24T12:24:07.822Z,96071.75
2023-08-24T12:28:23.204Z,96073.53
2023-08-24T12:32:52.419Z,96059.59
2023-08-24T12:37:06.497Z,96059.84
2023-08-24T12:41:19.603Z,96047.22
2023-08-24T12:45:33.730Z,96044.13
2023-08-24T12:49:48.377Z,96042.53
2023-08-24T12:54:01.582Z,96040.53
2023-08-24T12:58:14.759Z,96042.38
2023-08-24T13:02:37.301Z,96025.06
2023-08-24T13:06:51.713Z,96024.69
2023-08-24T13:11:04.798Z,96017.09
2023-08-24T13:15:18.337Z,96006.09
2023-08-24T13:19:31.932Z,95999.00
2023-08-24T13:23:45.090Z,95994.63
2023-08-24T13:27:58.411Z,95977.59
2023-08-24T13:32:11.564Z,95974.97
2023-08-24T13:36:24.724Z,95962.50
2023-08-24T13:40:37.784Z,95961.38
2023-08-24T13:44:50.873Z,95961.00
2023-08-24T13:49:04.493Z,95950.53
2023-08-24T13:53:17.618Z,95950.34
2023-08-24T13:57:31.933Z,95946.69
2023-08-24T14:01:45.127Z,95939.09
2023-08-24T14:05:59.259Z,95924.09
2023-08-24T14:10:12.475Z,95930.38
2023-08-24T14:14:25.675Z,95921.59
2023-08-24T14:18:40.007Z,95910.75
2023-08-24T14:22:53.228Z,95914.00
2023-08-24T14:27:06.805Z,95914.06
2023-08-24T14:31:20.199Z,95917.56
2023-08-24T14:35:34.489Z,95905.13
2023-08-24T14:39:47.578Z,95904.25
2023-08-24T14:44:00.772Z,95913.31
2023-08-24T14:48:16.097Z,95905.84
2023-08-24T14:52:29.431Z,95903.81
2023-08-24T14:56:42.913Z,95905.22
2023-08-24T15:00:59.854Z,95894.59
2023-08-24T15:05:13.846Z,95891.91
2023-08-24T15:09:26.907Z,95886.63
2023-08-24T15:13:41.040Z,95891.53
2023-08-24T15:17:54.104Z,95881.94
2023-08-24T15:22:07.275Z,95873.00
2023-08-24T15:26:20.460Z,95865.19
2023-08-24T15:30:34.100Z,95865.69
2023-08-24T15:34:47.313Z,95857.25
2023-08-24T15:39:00.444Z,95845.44
2023-08-24T15:43:13.633Z,95838.09
2023-08-24T15:47:26.332Z,95835.00
2023-08-24T15:51:40.632Z,95842.22
2023-08-24T15:55:54.302Z,95835.09
2023-08-24T16:00:14.768Z,95837.75
2023-08-24T16:04:28.494Z,95840.06
2023-08-24T16:08:41.588Z,95846.84
2023-08-24T16:12:54.759Z,95848.88
2023-08-24T16:17:08.414Z,95835.25
2023-08-24T16:21:22.933Z,95834.31
2023-08-24T16:25:36.142Z,95827.25
2023-08-24T16:29:49.258Z,95833.09
2023-08-24T16:34:02.374Z,95829.53
2023-08-24T16:38:16.225Z,95837.31
2023-08-24T16:42:30.208Z,95830.41
2023-08-24T16:46:43.427Z,95831.38
2023-08-24T16:50:57.151Z,95827.84
2023-08-24T16:55:10.333Z,95820.81
2023-08-24T16:59:33.209Z,95827.00
2023-08-24T17:03:47.354Z,95840.66
2023-08-24T17:08:11.770Z,95852.59
2023-08-24T17:12:24.969Z,95861.72
2023-08-24T17:16:38.143Z,95864.25
2023-08-24T17:20:51.655Z,95874.63
2023-08-24T17:25:06.337Z,95880.25
2023-08-24T17:29:19.483Z,95891.72
2023-08-24T17:33:35.657Z,95879.25
2023-08-24T17:37:48.831Z,95888.75
2023-08-24T17:42:01.938Z,95907.16
2023-08-24T17:46:15.126Z,95911.22
2023-08-24T17:50:28.232Z,95921.28
2023-08-24T17:54:41.324Z,95925.25
2023-08-24T17:58:54.382Z,95926.31
2023-08-24T18:03:07.643Z,95923.06
2023-08-24T18:07:20.594Z,95930.16
2023-08-24T18:11:33.692Z,95913.38
2023-08-24T18:15:46.827Z,95915.00
2023-08-24T18:19:59.971Z,95907.09
2023-08-24T18:24:13.320Z,95913.25
2023-08-24T18:28:26.817Z,95903.41
2023-08-24T18:32:45.630Z,95901.91
2023-08-24T18:36:58.229Z,95898.13
2023-08-24T18:41:11.307Z,95898.88
2023-08-24T18:45:26.706Z,95894.50
2023-08-24T18:49:39.912Z,95879.25
2023-08-24T18:53:53.063Z,95860.03
2023-08-24T18:58:05.993Z,95836.13
2023-08-24T19:02:20.280Z,95803.00
2023-08-24T19:06:41.636Z,95798.16
2023-08-24T19:10:58.369Z,95787.59
2023-08-24T19:15:11.943Z,95826.41
2023-08-24T19:19:25.001Z,95861.69
2023-08-24T19:23:38.959Z,95862.28
2023-08-24T19:27:52.528Z,95889.97
2023-08-24T19:32:06.026Z,95890.84
2023-08-24T19:36:19.114Z,95898.47
2023-08-24T19:40:32.204Z,95911.34
2023-08-24T19:44:44.708Z,95911.78
2023-08-24T19:48:59.217Z,95909.38
2023-08-24T19:53:12.295Z,95897.91
2023-08-24T19:57:25.352Z,95883.59
2023-08-24T20:01:37.931Z,95891.31
2023-08-24T20:05:55.349Z,95911.47
2023-08-24T20:10:09.638Z,95913.41
2023-08-24T20:14:22.155Z,95936.78
2023-08-24T20:18:35.616Z,95967.31
2023-08-24T20:22:49.277Z,96002.34
2023-08-24T20:27:01.823Z,96026.28
2023-08-24T20:31:14.290Z,96052.84
2023-08-24T20:35:27.430Z,96072.28
2023-08-24T20:39:40.034Z,96145.41
2023-08-24T20:43:52.547Z,96415.84
2023-08-24T20:48:05.623Z,96343.88
2023-08-24T20:52:19.949Z,96365.09
2023-08-24T20:56:32.604Z,96434.22
2023-08-24T21:00:45.267Z,96384.84
2023-08-24T21:04:57.814Z,96408.75
2023-08-24T21:09:11.078Z,96415.53
2023-08-24T21:13:23.583Z,96432.75
2023-08-24T21:17:36.220Z,96448.03
2023-08-24T21:21:49.465Z,96460.28
2023-08-24T21:26:02.080Z,96439.66
2023-08-24T21:30:14.630Z,96439.13
2023-08-24T21:34:27.157Z,96439.94
2023-08-24T21:38:40.430Z,96440.63
2023-08-24T21:42:53.055Z,96417.25
2023-08-24T21:47:05.720Z,96407.53
2023-08-24T21:51:18.439Z,96384.59
2023-08-24T21:55:31.294Z,96374.88
2023-08-24T21:59:45.405Z,96410.09
2023-08-24T22:03:57.960Z,96402.16
2023-08-24T22:08:10.540Z,96399.97
2023-08-24T22:12:23.046Z,96384.91
2023-08-24T22:16:35.793Z,96355.13
2023-08-24T22:20:48.899Z,96349.75
2023-08-24T22:25:01.339Z,96338.38
2023-08-24T22:29:14.127Z,96320.53
2023-08-24T22:33:26.569Z,96313.09
2023-08-24T22:37:39.030Z,96294.72
2023-08-24T22:41:51.537Z,96269.50
2023-08-24T22:46:05.137Z,96275.84
2023-08-24T22:50:17.744Z,96260.81
2023-08-24T22:54:30.291Z,96246.41
2023-08-24T22:58:42.929Z,96222.34
2023-08-24T23:02:55.694Z,96224.97
2023-08-24T23:07:09.564Z,96225.41
2023-08-24T23:11:22.071Z,96216.63
2023-08-24T23:15:34.614Z,96222.00
2023-08-24T23:19:47.364Z,96216.69
2023-08-24T23:24:08.132Z,96193.75
2023-08-24T23:28:29.911Z,96158.06
2023-08-24T23:32:42.422Z,96112.28
2023-08-24T23:36:55.129Z,96155.53
2023-08-24T23:41:07.749Z,96153.41
2023-08-24T23:45:20.335Z,96140.78
2023-08-24T23:49:32.856Z,96141.09
2023-08-24T23:53:45.486Z,96152.00
2023-08-24T23:57:58.781Z,96170.19
